sensor_id;sensor_type;location;lat;lon;timestamp;P1;durP1;ratioP1;P2;durP2;ratioP2
1682;SDS011;13252;53.596;10.060;2023-06-10T00:01:19;11.93;;;5.67;;
1682;SDS011;13252;53.596;10.060;2023-06-10T00:03:51;11.87;;;6.23;;
1682;SDS011;13252;53.596;10.060;2023-06-10T00:06:19;8.87;;;4.97;;
1682;SDS011;13252;53.596;10.060;2023-06-10T00:08:50;9.57;;;5.10;;
1682;SDS011;13252;53.596;10.060;2023-06-10T00:11:18;11.13;;;4.87;;
1682;SDS011;13252;53.596;10.060;2023-06-10T00:13:46;11.50;;;5.53;;
1682;SDS011;13252;53.596;10.060;2023-06-10T00:16:13;15.13;;;5.50;;
1682;SDS011;13252;53.596;10.060;2023-06-10T00:18:44;9.17;;;5.40;;
1682;SDS011;13252;53.596;10.060;2023-06-10T00:21:14;16.13;;;6.70;;
1682;SDS011;13252;53.596;10.060;2023-06-10T00:23:42;10.90;;;4.70;;
1682;SDS011;13252;53.596;10.060;2023-06-10T00:26:10;16.20;;;5.70;;
1682;SDS011;13252;53.596;10.060;2023-06-10T00:28:39;9.23;;;5.17;;
1682;SDS011;13252;53.596;10.060;2023-06-10T00:31:07;10.43;;;4.80;;
1682;SDS011;13252;53.596;10.060;2023-06-10T00:33:35;8.87;;;4.27;;
1682;SDS011;13252;53.596;10.060;2023-06-10T00:36:03;10.43;;;4.80;;
1682;SDS011;13252;53.596;10.060;2023-06-10T00:38:32;9.97;;;5.20;;
1682;SDS011;13252;53.596;10.060;2023-06-10T00:41:01;10.80;;;5.23;;
1682;SDS011;13252;53.596;10.060;2023-06-10T00:43:29;8.90;;;5.13;;
1682;SDS011;13252;53.596;10.060;2023-06-10T00:45:56;10.93;;;4.50;;
1682;SDS011;13252;53.596;10.060;2023-06-10T00:48:24;16.80;;;4.90;;
1682;SDS011;13252;53.596;10.060;2023-06-10T00:50:52;7.60;;;4.50;;
1682;SDS011;13252;53.596;10.060;2023-06-10T00:53:21;8.67;;;4.03;;
1682;SDS011;13252;53.596;10.060;2023-06-10T00:55:50;7.53;;;4.13;;
1682;SDS011;13252;53.596;10.060;2023-06-10T00:58:18;7.77;;;4.40;;
1682;SDS011;13252;53.596;10.060;2023-06-10T01:00:46;8.60;;;4.10;;
1682;SDS011;13252;53.596;10.060;2023-06-10T01:03:14;9.17;;;4.40;;
1682;SDS011;13252;53.596;10.060;2023-06-10T01:05:44;9.30;;;4.80;;
1682;SDS011;13252;53.596;10.060;2023-06-10T01:08:18;14.03;;;4.93;;
1682;SDS011;13252;53.596;10.060;2023-06-10T01:10:54;8.07;;;4.80;;
1682;SDS011;13252;53.596;10.060;2023-06-10T01:13:26;6.07;;;4.10;;
1682;SDS011;13252;53.596;10.060;2023-06-10T01:15:56;12.07;;;4.57;;
1682;SDS011;13252;53.596;10.060;2023-06-10T01:18:29;9.13;;;4.20;;
1682;SDS011;13252;53.596;10.060;2023-06-10T01:20:57;8.43;;;3.63;;
1682;SDS011;13252;53.596;10.060;2023-06-10T01:23:27;9.20;;;4.20;;
1682;SDS011;13252;53.596;10.060;2023-06-10T01:25:56;11.53;;;4.27;;
1682;SDS011;13252;53.596;10.060;2023-06-10T01:28:29;7.20;;;3.97;;
1682;SDS011;13252;53.596;10.060;2023-06-10T01:31:00;14.80;;;4.80;;
1682;SDS011;13252;53.596;10.060;2023-06-10T01:33:39;6.53;;;3.43;;
1682;SDS011;13252;53.596;10.060;2023-06-10T01:36:09;8.00;;;3.63;;
1682;SDS011;13252;53.596;10.060;2023-06-10T01:38:39;9.67;;;4.30;;
1682;SDS011;13252;53.596;10.060;2023-06-10T01:41:08;11.33;;;3.80;;
1682;SDS011;13252;53.596;10.060;2023-06-10T01:43:37;8.77;;;4.40;;
1682;SDS011;13252;53.596;10.060;2023-06-10T01:46:06;11.53;;;3.93;;
1682;SDS011;13252;53.596;10.060;2023-06-10T01:48:34;7.73;;;3.83;;
1682;SDS011;13252;53.596;10.060;2023-06-10T01:51:02;12.40;;;3.60;;
1682;SDS011;13252;53.596;10.060;2023-06-10T01:53:30;14.77;;;3.50;;
1682;SDS011;13252;53.596;10.060;2023-06-10T01:55:59;9.30;;;3.73;;
1682;SDS011;13252;53.596;10.060;2023-06-10T01:58:28;8.03;;;3.23;;
1682;SDS011;13252;53.596;10.060;2023-06-10T02:00:56;6.70;;;3.17;;
1682;SDS011;13252;53.596;10.060;2023-06-10T02:03:23;12.20;;;3.50;;
1682;SDS011;13252;53.596;10.060;2023-06-10T02:05:51;8.07;;;3.27;;
1682;SDS011;13252;53.596;10.060;2023-06-10T02:08:19;8.93;;;3.70;;
1682;SDS011;13252;53.596;10.060;2023-06-10T02:10:47;13.60;;;3.70;;
1682;SDS011;13252;53.596;10.060;2023-06-10T02:13:16;12.70;;;3.90;;
1682;SDS011;13252;53.596;10.060;2023-06-10T02:15:44;11.20;;;2.97;;
1682;SDS011;13252;53.596;10.060;2023-06-10T02:18:12;15.60;;;4.30;;
1682;SDS011;13252;53.596;10.060;2023-06-10T02:20:39;10.63;;;4.00;;
1682;SDS011;13252;53.596;10.060;2023-06-10T02:23:07;5.43;;;2.67;;
1682;SDS011;13252;53.596;10.060;2023-06-10T02:25:35;6.73;;;3.03;;
1682;SDS011;13252;53.596;10.060;2023-06-10T02:28:03;5.90;;;2.90;;
1682;SDS011;13252;53.596;10.060;2023-06-10T02:30:32;7.50;;;2.97;;
1682;SDS011;13252;53.596;10.060;2023-06-10T02:33:00;11.83;;;3.33;;
1682;SDS011;13252;53.596;10.060;2023-06-10T02:35:28;8.57;;;3.07;;
1682;SDS011;13252;53.596;10.060;2023-06-10T02:37:56;8.93;;;3.20;;
1682;SDS011;13252;53.596;10.060;2023-06-10T02:40:25;12.23;;;3.10;;
1682;SDS011;13252;53.596;10.060;2023-06-10T02:42:52;5.53;;;2.73;;
1682;SDS011;13252;53.596;10.060;2023-06-10T02:45:20;17.00;;;4.57;;
1682;SDS011;13252;53.596;10.060;2023-06-10T02:47:49;4.90;;;3.10;;
1682;SDS011;13252;53.596;10.060;2023-06-10T02:50:17;7.50;;;3.03;;
1682;SDS011;13252;53.596;10.060;2023-06-10T02:52:56;6.43;;;2.90;;
1682;SDS011;13252;53.596;10.060;2023-06-10T02:55:24;9.03;;;3.03;;
1682;SDS011;13252;53.596;10.060;2023-06-10T02:57:56;9.77;;;3.47;;
1682;SDS011;13252;53.596;10.060;2023-06-10T03:00:24;9.53;;;3.00;;
1682;SDS011;13252;53.596;10.060;2023-06-10T03:03:03;9.83;;;3.77;;
1682;SDS011;13252;53.596;10.060;2023-06-10T03:05:40;9.60;;;3.27;;
1682;SDS011;13252;53.596;10.060;2023-06-10T03:08:08;6.60;;;2.67;;
1682;SDS011;13252;53.596;10.060;2023-06-10T03:10:39;6.03;;;2.80;;
1682;SDS011;13252;53.596;10.060;2023-06-10T03:13:09;13.37;;;3.60;;
1682;SDS011;13252;53.596;10.060;2023-06-10T03:15:37;7.57;;;2.70;;
1682;SDS011;13252;53.596;10.060;2023-06-10T03:18:11;6.60;;;2.43;;
1682;SDS011;13252;53.596;10.060;2023-06-10T03:20:40;5.87;;;2.97;;
1682;SDS011;13252;53.596;10.060;2023-06-10T03:23:09;4.10;;;2.63;;
1682;SDS011;13252;53.596;10.060;2023-06-10T03:25:39;7.47;;;3.10;;
1682;SDS011;13252;53.596;10.060;2023-06-10T03:28:10;5.57;;;3.07;;
1682;SDS011;13252;53.596;10.060;2023-06-10T03:30:38;10.57;;;3.13;;
1682;SDS011;13252;53.596;10.060;2023-06-10T03:33:06;10.50;;;3.50;;
1682;SDS011;13252;53.596;10.060;2023-06-10T03:35:35;8.43;;;2.80;;
1682;SDS011;13252;53.596;10.060;2023-06-10T03:38:04;10.40;;;4.43;;
1682;SDS011;13252;53.596;10.060;2023-06-10T03:40:32;14.20;;;3.17;;
1682;SDS011;13252;53.596;10.060;2023-06-10T03:43:01;6.63;;;2.70;;
1682;SDS011;13252;53.596;10.060;2023-06-10T03:45:30;11.83;;;3.30;;
1682;SDS011;13252;53.596;10.060;2023-06-10T03:47:59;7.50;;;2.27;;
1682;SDS011;13252;53.596;10.060;2023-06-10T03:50:36;8.20;;;3.20;;
1682;SDS011;13252;53.596;10.060;2023-06-10T03:53:04;7.00;;;2.70;;
1682;SDS011;13252;53.596;10.060;2023-06-10T03:55:32;5.60;;;2.70;;
1682;SDS011;13252;53.596;10.060;2023-06-10T03:58:00;9.83;;;3.40;;
1682;SDS011;13252;53.596;10.060;2023-06-10T04:00:28;8.70;;;2.90;;
1682;SDS011;13252;53.596;10.060;2023-06-10T04:02:56;6.90;;;2.53;;
1682;SDS011;13252;53.596;10.060;2023-06-10T04:05:38;9.00;;;2.40;;
1682;SDS011;13252;53.596;10.060;2023-06-10T04:08:06;12.63;;;3.33;;
1682;SDS011;13252;53.596;10.060;2023-06-10T04:10:34;6.23;;;2.67;;
1682;SDS011;13252;53.596;10.060;2023-06-10T04:13:02;13.70;;;2.87;;
1682;SDS011;13252;53.596;10.060;2023-06-10T04:15:37;6.57;;;2.60;;
1682;SDS011;13252;53.596;10.060;2023-06-10T04:18:08;6.70;;;2.50;;
1682;SDS011;13252;53.596;10.060;2023-06-10T04:20:38;8.63;;;2.33;;
1682;SDS011;13252;53.596;10.060;2023-06-10T04:23:06;11.10;;;3.20;;
1682;SDS011;13252;53.596;10.060;2023-06-10T04:25:35;8.83;;;2.70;;
1682;SDS011;13252;53.596;10.060;2023-06-10T04:28:03;12.50;;;2.73;;
1682;SDS011;13252;53.596;10.060;2023-06-10T04:30:31;8.80;;;2.43;;
1682;SDS011;13252;53.596;10.060;2023-06-10T04:33:00;6.73;;;2.40;;
1682;SDS011;13252;53.596;10.060;2023-06-10T04:35:29;9.90;;;2.70;;
1682;SDS011;13252;53.596;10.060;2023-06-10T04:38:01;7.90;;;2.57;;
1682;SDS011;13252;53.596;10.060;2023-06-10T04:40:30;10.10;;;2.40;;
1682;SDS011;13252;53.596;10.060;2023-06-10T04:42:59;7.80;;;3.30;;
1682;SDS011;13252;53.596;10.060;2023-06-10T04:45:27;5.30;;;2.50;;
1682;SDS011;13252;53.596;10.060;2023-06-10T04:47:56;8.90;;;2.93;;
1682;SDS011;13252;53.596;10.060;2023-06-10T04:50:26;8.07;;;2.40;;
1682;SDS011;13252;53.596;10.060;2023-06-10T04:52:54;5.20;;;1.83;;
1682;SDS011;13252;53.596;10.060;2023-06-10T04:55:27;10.20;;;3.20;;
1682;SDS011;13252;53.596;10.060;2023-06-10T04:57:55;17.40;;;3.87;;
1682;SDS011;13252;53.596;10.060;2023-06-10T05:00:24;5.87;;;2.43;;
1682;SDS011;13252;53.596;10.060;2023-06-10T05:02:52;5.87;;;2.47;;
1682;SDS011;13252;53.596;10.060;2023-06-10T05:05:20;16.03;;;3.47;;
1682;SDS011;13252;53.596;10.060;2023-06-10T05:07:48;7.57;;;2.10;;
1682;SDS011;13252;53.596;10.060;2023-06-10T05:10:16;8.83;;;2.40;;
1682;SDS011;13252;53.596;10.060;2023-06-10T05:16:37;29.67;;;3.23;;
1682;SDS011;13252;53.596;10.060;2023-06-10T05:19:05;7.57;;;2.30;;
1682;SDS011;13252;53.596;10.060;2023-06-10T05:21:34;8.00;;;3.50;;
1682;SDS011;13252;53.596;10.060;2023-06-10T05:24:02;10.17;;;2.73;;
1682;SDS011;13252;53.596;10.060;2023-06-10T05:26:30;7.33;;;2.43;;
1682;SDS011;13252;53.596;10.060;2023-06-10T05:28:59;10.50;;;2.43;;
1682;SDS011;13252;53.596;10.060;2023-06-10T05:31:27;11.73;;;2.93;;
1682;SDS011;13252;53.596;10.060;2023-06-10T05:33:56;8.43;;;2.40;;
1682;SDS011;13252;53.596;10.060;2023-06-10T05:36:24;13.53;;;2.27;;
1682;SDS011;13252;53.596;10.060;2023-06-10T05:38:53;11.43;;;2.33;;
1682;SDS011;13252;53.596;10.060;2023-06-10T05:41:22;13.10;;;2.90;;
1682;SDS011;13252;53.596;10.060;2023-06-10T05:43:50;23.40;;;2.70;;
1682;SDS011;13252;53.596;10.060;2023-06-10T05:46:18;9.60;;;2.30;;
1682;SDS011;13252;53.596;10.060;2023-06-10T05:48:47;5.90;;;2.50;;
1682;SDS011;13252;53.596;10.060;2023-06-10T05:51:16;8.20;;;1.87;;
1682;SDS011;13252;53.596;10.060;2023-06-10T05:53:44;7.27;;;2.60;;
1682;SDS011;13252;53.596;10.060;2023-06-10T05:56:13;9.07;;;2.63;;
1682;SDS011;13252;53.596;10.060;2023-06-10T06:01:59;12.57;;;3.00;;
1682;SDS011;13252;53.596;10.060;2023-06-10T06:04:27;8.33;;;2.33;;
1682;SDS011;13252;53.596;10.060;2023-06-10T06:06:56;7.33;;;3.30;;
1682;SDS011;13252;53.596;10.060;2023-06-10T06:09:24;6.40;;;2.27;;
1682;SDS011;13252;53.596;10.060;2023-06-10T06:11:52;7.93;;;2.37;;
1682;SDS011;13252;53.596;10.060;2023-06-10T06:14:20;7.87;;;2.30;;
1682;SDS011;13252;53.596;10.060;2023-06-10T06:16:48;10.00;;;2.57;;
1682;SDS011;13252;53.596;10.060;2023-06-10T06:19:16;6.77;;;2.57;;
1682;SDS011;13252;53.596;10.060;2023-06-10T06:21:44;6.67;;;2.63;;
1682;SDS011;13252;53.596;10.060;2023-06-10T06:24:13;10.87;;;2.83;;
1682;SDS011;13252;53.596;10.060;2023-06-10T06:26:42;8.90;;;2.70;;
1682;SDS011;13252;53.596;10.060;2023-06-10T06:29:10;7.13;;;2.43;;
1682;SDS011;13252;53.596;10.060;2023-06-10T06:31:38;10.43;;;2.33;;
1682;SDS011;13252;53.596;10.060;2023-06-10T06:34:06;10.40;;;2.40;;
1682;SDS011;13252;53.596;10.060;2023-06-10T06:36:33;9.03;;;2.37;;
1682;SDS011;13252;53.596;10.060;2023-06-10T06:39:01;14.00;;;2.40;;
1682;SDS011;13252;53.596;10.060;2023-06-10T06:41:31;10.47;;;2.80;;
1682;SDS011;13252;53.596;10.060;2023-06-10T06:43:59;8.23;;;3.77;;
1682;SDS011;13252;53.596;10.060;2023-06-10T06:46:35;8.03;;;3.00;;
1682;SDS011;13252;53.596;10.060;2023-06-10T06:49:03;6.97;;;2.63;;
1682;SDS011;13252;53.596;10.060;2023-06-10T06:51:31;10.27;;;2.60;;
1682;SDS011;13252;53.596;10.060;2023-06-10T06:53:59;32.33;;;3.43;;
1682;SDS011;13252;53.596;10.060;2023-06-10T06:56:26;9.13;;;2.93;;
1682;SDS011;13252;53.596;10.060;2023-06-10T06:58:56;12.07;;;3.03;;
1682;SDS011;13252;53.596;10.060;2023-06-10T07:01:24;6.60;;;2.50;;
1682;SDS011;13252;53.596;10.060;2023-06-10T07:03:51;8.50;;;2.93;;
1682;SDS011;13252;53.596;10.060;2023-06-10T07:06:19;22.63;;;5.37;;
1682;SDS011;13252;53.596;10.060;2023-06-10T07:08:48;15.47;;;3.10;;
1682;SDS011;13252;53.596;10.060;2023-06-10T07:11:16;13.20;;;2.80;;
1682;SDS011;13252;53.596;10.060;2023-06-10T07:13:45;9.77;;;2.43;;
1682;SDS011;13252;53.596;10.060;2023-06-10T07:16:14;6.57;;;2.27;;
1682;SDS011;13252;53.596;10.060;2023-06-10T07:18:42;8.20;;;2.80;;
1682;SDS011;13252;53.596;10.060;2023-06-10T07:21:11;10.87;;;2.70;;
1682;SDS011;13252;53.596;10.060;2023-06-10T07:23:41;11.83;;;2.93;;
1682;SDS011;13252;53.596;10.060;2023-06-10T07:26:09;8.73;;;3.13;;
1682;SDS011;13252;53.596;10.060;2023-06-10T07:28:37;11.73;;;2.70;;
1682;SDS011;13252;53.596;10.060;2023-06-10T07:31:05;11.47;;;3.10;;
1682;SDS011;13252;53.596;10.060;2023-06-10T07:33:34;8.67;;;3.33;;
1682;SDS011;13252;53.596;10.060;2023-06-10T07:36:03;10.27;;;3.23;;
1682;SDS011;13252;53.596;10.060;2023-06-10T07:38:31;8.90;;;2.30;;
1682;SDS011;13252;53.596;10.060;2023-06-10T07:40:59;12.17;;;2.90;;
1682;SDS011;13252;53.596;10.060;2023-06-10T07:43:27;7.23;;;2.37;;
1682;SDS011;13252;53.596;10.060;2023-06-10T07:45:55;10.17;;;2.50;;
1682;SDS011;13252;53.596;10.060;2023-06-10T07:48:23;7.90;;;3.30;;
1682;SDS011;13252;53.596;10.060;2023-06-10T07:50:52;10.30;;;3.30;;
1682;SDS011;13252;53.596;10.060;2023-06-10T07:53:20;5.67;;;3.00;;
1682;SDS011;13252;53.596;10.060;2023-06-10T07:55:48;9.53;;;3.60;;
1682;SDS011;13252;53.596;10.060;2023-06-10T07:58:16;10.77;;;3.00;;
1682;SDS011;13252;53.596;10.060;2023-06-10T08:00:44;11.97;;;3.30;;
1682;SDS011;13252;53.596;10.060;2023-06-10T08:03:12;9.37;;;3.60;;
1682;SDS011;13252;53.596;10.060;2023-06-10T08:05:40;10.40;;;3.47;;
1682;SDS011;13252;53.596;10.060;2023-06-10T08:08:09;7.23;;;2.80;;
1682;SDS011;13252;53.596;10.060;2023-06-10T08:10:37;7.57;;;3.03;;
1682;SDS011;13252;53.596;10.060;2023-06-10T08:13:05;11.50;;;2.97;;
1682;SDS011;13252;53.596;10.060;2023-06-10T08:15:33;8.77;;;3.60;;
1682;SDS011;13252;53.596;10.060;2023-06-10T08:18:01;23.50;;;4.30;;
1682;SDS011;13252;53.596;10.060;2023-06-10T08:20:29;8.60;;;3.20;;
1682;SDS011;13252;53.596;10.060;2023-06-10T08:22:57;12.80;;;3.80;;
1682;SDS011;13252;53.596;10.060;2023-06-10T08:25:26;6.90;;;2.80;;
1682;SDS011;13252;53.596;10.060;2023-06-10T08:27:55;7.70;;;3.60;;
1682;SDS011;13252;53.596;10.060;2023-06-10T08:30:23;10.67;;;3.30;;
1682;SDS011;13252;53.596;10.060;2023-06-10T08:32:53;7.80;;;3.17;;
1682;SDS011;13252;53.596;10.060;2023-06-10T08:35:22;10.40;;;3.40;;
1682;SDS011;13252;53.596;10.060;2023-06-10T08:37:50;6.07;;;3.20;;
1682;SDS011;13252;53.596;10.060;2023-06-10T08:40:18;11.50;;;2.90;;
1682;SDS011;13252;53.596;10.060;2023-06-10T08:42:48;10.90;;;3.70;;
1682;SDS011;13252;53.596;10.060;2023-06-10T08:45:20;9.83;;;4.03;;
1682;SDS011;13252;53.596;10.060;2023-06-10T08:47:49;9.20;;;3.37;;
1682;SDS011;13252;53.596;10.060;2023-06-10T08:50:19;6.27;;;3.10;;
1682;SDS011;13252;53.596;10.060;2023-06-10T08:52:48;7.33;;;3.10;;
1682;SDS011;13252;53.596;10.060;2023-06-10T08:55:18;6.83;;;3.20;;
1682;SDS011;13252;53.596;10.060;2023-06-10T08:57:50;12.70;;;3.83;;
1682;SDS011;13252;53.596;10.060;2023-06-10T09:00:18;9.07;;;3.23;;
1682;SDS011;13252;53.596;10.060;2023-06-10T09:02:46;6.27;;;3.10;;
1682;SDS011;13252;53.596;10.060;2023-06-10T09:05:14;8.10;;;3.20;;
1682;SDS011;13252;53.596;10.060;2023-06-10T09:07:42;6.50;;;2.90;;
1682;SDS011;13252;53.596;10.060;2023-06-10T09:10:10;6.10;;;3.10;;
1682;SDS011;13252;53.596;10.060;2023-06-10T09:12:39;8.00;;;3.30;;
1682;SDS011;13252;53.596;10.060;2023-06-10T09:15:09;10.33;;;3.73;;
1682;SDS011;13252;53.596;10.060;2023-06-10T09:17:38;6.80;;;3.50;;
1682;SDS011;13252;53.596;10.060;2023-06-10T09:20:07;8.40;;;3.40;;
1682;SDS011;13252;53.596;10.060;2023-06-10T09:22:36;8.83;;;3.70;;
1682;SDS011;13252;53.596;10.060;2023-06-10T09:25:05;8.53;;;3.40;;
1682;SDS011;13252;53.596;10.060;2023-06-10T09:27:43;10.60;;;4.00;;
1682;SDS011;13252;53.596;10.060;2023-06-10T09:30:16;9.60;;;3.40;;
1682;SDS011;13252;53.596;10.060;2023-06-10T09:32:52;9.70;;;4.13;;
1682;SDS011;13252;53.596;10.060;2023-06-10T09:35:22;10.87;;;4.03;;
1682;SDS011;13252;53.596;10.060;2023-06-10T09:37:51;7.07;;;3.13;;
1682;SDS011;13252;53.596;10.060;2023-06-10T09:40:20;11.70;;;3.37;;
1682;SDS011;13252;53.596;10.060;2023-06-10T09:42:52;9.77;;;4.70;;
1682;SDS011;13252;53.596;10.060;2023-06-10T09:45:28;12.30;;;3.70;;
1682;SDS011;13252;53.596;10.060;2023-06-10T09:47:57;11.57;;;4.77;;
1682;SDS011;13252;53.596;10.060;2023-06-10T09:50:25;8.47;;;3.83;;
1682;SDS011;13252;53.596;10.060;2023-06-10T09:52:53;6.50;;;3.07;;
1682;SDS011;13252;53.596;10.060;2023-06-10T09:55:21;6.70;;;3.23;;
1682;SDS011;13252;53.596;10.060;2023-06-10T09:57:49;10.17;;;3.83;;
1682;SDS011;13252;53.596;10.060;2023-06-10T10:00:22;9.43;;;3.33;;
1682;SDS011;13252;53.596;10.060;2023-06-10T10:02:52;7.93;;;3.90;;
1682;SDS011;13252;53.596;10.060;2023-06-10T10:05:24;9.43;;;3.60;;
1682;SDS011;13252;53.596;10.060;2023-06-10T10:07:52;8.83;;;3.70;;
1682;SDS011;13252;53.596;10.060;2023-06-10T10:10:20;9.63;;;3.70;;
1682;SDS011;13252;53.596;10.060;2023-06-10T10:12:50;16.20;;;4.27;;
1682;SDS011;13252;53.596;10.060;2023-06-10T10:15:18;9.83;;;3.17;;
1682;SDS011;13252;53.596;10.060;2023-06-10T10:17:49;7.13;;;3.60;;
1682;SDS011;13252;53.596;10.060;2023-06-10T10:20:22;9.20;;;3.80;;
1682;SDS011;13252;53.596;10.060;2023-06-10T10:22:52;10.23;;;3.80;;
1682;SDS011;13252;53.596;10.060;2023-06-10T10:25:25;8.77;;;3.70;;
1682;SDS011;13252;53.596;10.060;2023-06-10T10:27:56;14.30;;;4.50;;
1682;SDS011;13252;53.596;10.060;2023-06-10T10:30:26;13.30;;;3.90;;
1682;SDS011;13252;53.596;10.060;2023-06-10T10:32:57;6.87;;;4.10;;
1682;SDS011;13252;53.596;10.060;2023-06-10T10:35:27;7.87;;;3.80;;
1682;SDS011;13252;53.596;10.060;2023-06-10T10:37:55;8.43;;;3.47;;
1682;SDS011;13252;53.596;10.060;2023-06-10T10:40:23;9.20;;;3.70;;
1682;SDS011;13252;53.596;10.060;2023-06-10T10:42:52;7.53;;;3.77;;
1682;SDS011;13252;53.596;10.060;2023-06-10T10:45:21;8.90;;;4.67;;
1682;SDS011;13252;53.596;10.060;2023-06-10T10:47:51;12.80;;;4.20;;
1682;SDS011;13252;53.596;10.060;2023-06-10T10:50:20;14.20;;;5.90;;
1682;SDS011;13252;53.596;10.060;2023-06-10T10:52:54;9.47;;;4.10;;
1682;SDS011;13252;53.596;10.060;2023-06-10T10:55:23;8.47;;;3.40;;
1682;SDS011;13252;53.596;10.060;2023-06-10T10:57:55;13.20;;;4.10;;
1682;SDS011;13252;53.596;10.060;2023-06-10T11:00:26;12.77;;;4.40;;
1682;SDS011;13252;53.596;10.060;2023-06-10T11:02:59;7.70;;;3.80;;
1682;SDS011;13252;53.596;10.060;2023-06-10T11:05:39;14.10;;;4.27;;
1682;SDS011;13252;53.596;10.060;2023-06-10T11:08:12;10.40;;;3.80;;
1682;SDS011;13252;53.596;10.060;2023-06-10T11:10:41;9.63;;;4.20;;
1682;SDS011;13252;53.596;10.060;2023-06-10T11:13:10;18.30;;;4.70;;
1682;SDS011;13252;53.596;10.060;2023-06-10T11:15:43;12.73;;;4.57;;
1682;SDS011;13252;53.596;10.060;2023-06-10T11:18:13;9.90;;;3.83;;
1682;SDS011;13252;53.596;10.060;2023-06-10T11:20:43;13.40;;;4.87;;
1682;SDS011;13252;53.596;10.060;2023-06-10T11:23:40;13.50;;;3.97;;
1682;SDS011;13252;53.596;10.060;2023-06-10T11:26:13;11.17;;;3.80;;
1682;SDS011;13252;53.596;10.060;2023-06-10T11:31:30;8.30;;;4.43;;
1682;SDS011;13252;53.596;10.060;2023-06-10T11:34:00;8.70;;;4.00;;
1682;SDS011;13252;53.596;10.060;2023-06-10T11:36:29;9.93;;;4.00;;
1682;SDS011;13252;53.596;10.060;2023-06-10T11:39:00;8.50;;;3.87;;
1682;SDS011;13252;53.596;10.060;2023-06-10T11:41:30;8.70;;;4.17;;
1682;SDS011;13252;53.596;10.060;2023-06-10T11:44:01;7.07;;;4.27;;
1682;SDS011;13252;53.596;10.060;2023-06-10T11:46:33;12.20;;;4.30;;
1682;SDS011;13252;53.596;10.060;2023-06-10T11:49:01;11.70;;;4.30;;
1682;SDS011;13252;53.596;10.060;2023-06-10T11:51:31;12.60;;;4.87;;
1682;SDS011;13252;53.596;10.060;2023-06-10T11:54:01;9.47;;;4.47;;
1682;SDS011;13252;53.596;10.060;2023-06-10T11:56:30;10.20;;;4.63;;
1682;SDS011;13252;53.596;10.060;2023-06-10T11:59:00;13.47;;;4.77;;
1682;SDS011;13252;53.596;10.060;2023-06-10T12:01:31;13.13;;;4.80;;
1682;SDS011;13252;53.596;10.060;2023-06-10T12:04:01;8.43;;;4.37;;
1682;SDS011;13252;53.596;10.060;2023-06-10T12:06:39;9.47;;;4.00;;
1682;SDS011;13252;53.596;10.060;2023-06-10T12:09:17;10.73;;;4.37;;
1682;SDS011;13252;53.596;10.060;2023-06-10T12:11:53;8.77;;;3.97;;
1682;SDS011;13252;53.596;10.060;2023-06-10T12:17:21;12.37;;;4.30;;
1682;SDS011;13252;53.596;10.060;2023-06-10T12:19:50;9.97;;;4.63;;
1682;SDS011;13252;53.596;10.060;2023-06-10T12:22:18;15.03;;;4.53;;
1682;SDS011;13252;53.596;10.060;2023-06-10T12:25:01;13.67;;;5.10;;
1682;SDS011;13252;53.596;10.060;2023-06-10T12:27:31;8.53;;;4.77;;
1682;SDS011;13252;53.596;10.060;2023-06-10T12:30:00;14.20;;;4.60;;
1682;SDS011;13252;53.596;10.060;2023-06-10T12:32:35;7.50;;;4.27;;
1682;SDS011;13252;53.596;10.060;2023-06-10T12:35:04;15.87;;;4.80;;
1682;SDS011;13252;53.596;10.060;2023-06-10T12:37:34;13.10;;;4.90;;
1682;SDS011;13252;53.596;10.060;2023-06-10T12:40:10;15.27;;;5.40;;
1682;SDS011;13252;53.596;10.060;2023-06-10T12:42:38;17.73;;;4.53;;
1682;SDS011;13252;53.596;10.060;2023-06-10T12:45:08;9.53;;;4.70;;
1682;SDS011;13252;53.596;10.060;2023-06-10T12:47:39;11.80;;;4.50;;
1682;SDS011;13252;53.596;10.060;2023-06-10T12:50:08;15.87;;;4.60;;
1682;SDS011;13252;53.596;10.060;2023-06-10T12:52:38;9.93;;;4.57;;
1682;SDS011;13252;53.596;10.060;2023-06-10T12:55:08;6.13;;;4.40;;
1682;SDS011;13252;53.596;10.060;2023-06-10T12:57:47;7.83;;;4.70;;
1682;SDS011;13252;53.596;10.060;2023-06-10T13:00:16;11.47;;;5.23;;
1682;SDS011;13252;53.596;10.060;2023-06-10T13:02:46;11.20;;;4.77;;
1682;SDS011;13252;53.596;10.060;2023-06-10T13:05:14;10.30;;;4.60;;
1682;SDS011;13252;53.596;10.060;2023-06-10T13:07:43;7.20;;;4.10;;
1682;SDS011;13252;53.596;10.060;2023-06-10T13:10:13;14.87;;;4.50;;
1682;SDS011;13252;53.596;10.060;2023-06-10T13:12:41;14.57;;;5.23;;
1682;SDS011;13252;53.596;10.060;2023-06-10T13:15:14;7.53;;;4.47;;
1682;SDS011;13252;53.596;10.060;2023-06-10T13:17:45;13.10;;;4.03;;
1682;SDS011;13252;53.596;10.060;2023-06-10T13:20:16;11.30;;;3.63;;
1682;SDS011;13252;53.596;10.060;2023-06-10T13:22:44;11.63;;;3.70;;
1682;SDS011;13252;53.596;10.060;2023-06-10T13:25:15;14.60;;;4.47;;
1682;SDS011;13252;53.596;10.060;2023-06-10T13:27:43;17.00;;;4.20;;
1682;SDS011;13252;53.596;10.060;2023-06-10T13:30:14;13.73;;;4.67;;
1682;SDS011;13252;53.596;10.060;2023-06-10T13:32:42;11.57;;;4.60;;
1682;SDS011;13252;53.596;10.060;2023-06-10T13:35:10;12.97;;;4.80;;
1682;SDS011;13252;53.596;10.060;2023-06-10T13:37:38;11.73;;;3.50;;
1682;SDS011;13252;53.596;10.060;2023-06-10T13:40:06;18.13;;;3.97;;
1682;SDS011;13252;53.596;10.060;2023-06-10T13:42:37;14.67;;;4.40;;
1682;SDS011;13252;53.596;10.060;2023-06-10T13:45:06;7.87;;;3.70;;
1682;SDS011;13252;53.596;10.060;2023-06-10T13:47:36;8.73;;;3.87;;
1682;SDS011;13252;53.596;10.060;2023-06-10T13:50:05;6.77;;;3.90;;
1682;SDS011;13252;53.596;10.060;2023-06-10T13:52:34;12.40;;;3.67;;
1682;SDS011;13252;53.596;10.060;2023-06-10T13:55:02;10.53;;;4.27;;
1682;SDS011;13252;53.596;10.060;2023-06-10T13:57:30;8.33;;;4.50;;
1682;SDS011;13252;53.596;10.060;2023-06-10T14:00:00;8.13;;;3.50;;
1682;SDS011;13252;53.596;10.060;2023-06-10T14:02:29;9.97;;;4.43;;
1682;SDS011;13252;53.596;10.060;2023-06-10T14:04:57;12.63;;;3.83;;
1682;SDS011;13252;53.596;10.060;2023-06-10T14:07:25;13.30;;;3.67;;
1682;SDS011;13252;53.596;10.060;2023-06-10T14:09:53;5.67;;;3.20;;
1682;SDS011;13252;53.596;10.060;2023-06-10T14:12:21;9.80;;;3.67;;
1682;SDS011;13252;53.596;10.060;2023-06-10T14:14:49;10.50;;;3.50;;
1682;SDS011;13252;53.596;10.060;2023-06-10T14:17:18;8.90;;;3.53;;
1682;SDS011;13252;53.596;10.060;2023-06-10T14:19:46;9.63;;;3.50;;
1682;SDS011;13252;53.596;10.060;2023-06-10T14:22:14;15.10;;;3.70;;
1682;SDS011;13252;53.596;10.060;2023-06-10T14:24:42;12.60;;;3.87;;
1682;SDS011;13252;53.596;10.060;2023-06-10T14:27:09;7.73;;;3.03;;
1682;SDS011;13252;53.596;10.060;2023-06-10T14:29:37;16.80;;;3.80;;
1682;SDS011;13252;53.596;10.060;2023-06-10T14:32:05;10.93;;;3.70;;
1682;SDS011;13252;53.596;10.060;2023-06-10T14:34:36;8.73;;;3.70;;
1682;SDS011;13252;53.596;10.060;2023-06-10T14:37:05;12.40;;;5.30;;
1682;SDS011;13252;53.596;10.060;2023-06-10T14:39:34;9.43;;;4.10;;
1682;SDS011;13252;53.596;10.060;2023-06-10T14:42:03;9.50;;;4.10;;
1682;SDS011;13252;53.596;10.060;2023-06-10T14:44:32;16.60;;;4.63;;
1682;SDS011;13252;53.596;10.060;2023-06-10T14:47:00;10.90;;;3.97;;
1682;SDS011;13252;53.596;10.060;2023-06-10T14:49:28;12.13;;;4.10;;
1682;SDS011;13252;53.596;10.060;2023-06-10T14:51:57;8.70;;;3.90;;
1682;SDS011;13252;53.596;10.060;2023-06-10T14:54:25;14.13;;;3.73;;
1682;SDS011;13252;53.596;10.060;2023-06-10T14:56:54;14.00;;;3.90;;
1682;SDS011;13252;53.596;10.060;2023-06-10T14:59:21;10.10;;;3.97;;
1682;SDS011;13252;53.596;10.060;2023-06-10T15:01:49;7.30;;;2.97;;
1682;SDS011;13252;53.596;10.060;2023-06-10T15:04:17;13.17;;;3.80;;
1682;SDS011;13252;53.596;10.060;2023-06-10T15:06:49;8.70;;;3.67;;
1682;SDS011;13252;53.596;10.060;2023-06-10T15:09:18;10.87;;;3.60;;